sensor_id;sensor_type;location;lat;lon;timestamp;P1;durP1;ratioP1;P2;durP2;ratioP2
17965;SDS011;9108;53.204;10.424;2024-01-15T00:14:12;12.32;;;2.78;;
17965;SDS011;9108;53.204;10.424;2024-01-15T00:16:40;13.05;;;3.00;;
17965;SDS011;9108;53.204;10.424;2024-01-15T00:19:07;14.25;;;3.10;;
17965;SDS011;9108;53.204;10.424;2024-01-15T00:21:34;17.38;;;2.97;;
17965;SDS011;9108;53.204;10.424;2024-01-15T00:24:01;15.88;;;3.20;;
17965;SDS011;9108;53.204;10.424;2024-01-15T00:26:28;17.33;;;2.95;;
17965;SDS011;9108;53.204;10.424;2024-01-15T00:28:55;12.85;;;2.92;;
17965;SDS011;9108;53.204;10.424;2024-01-15T00:31:24;15.43;;;2.90;;
17965;SDS011;9108;53.204;10.424;2024-01-15T00:33:51;15.48;;;3.40;;
17965;SDS011;9108;53.204;10.424;2024-01-15T00:36:18;20.95;;;3.40;;
17965;SDS011;9108;53.204;10.424;2024-01-15T00:38:45;20.02;;;3.45;;
17965;SDS011;9108;53.204;10.424;2024-01-15T00:41:13;20.40;;;2.90;;
17965;SDS011;9108;53.204;10.424;2024-01-15T00:43:40;18.05;;;3.08;;
17965;SDS011;9108;53.204;10.424;2024-01-15T00:46:07;12.68;;;2.72;;
17965;SDS011;9108;53.204;10.424;2024-01-15T00:48:36;16.67;;;2.85;;
17965;SDS011;9108;53.204;10.424;2024-01-15T00:51:03;18.33;;;3.10;;
17965;SDS011;9108;53.204;10.424;2024-01-15T00:53:31;16.23;;;2.80;;
17965;SDS011;9108;53.204;10.424;2024-01-15T00:55:58;17.92;;;2.90;;
17965;SDS011;9108;53.204;10.424;2024-01-15T00:58:25;13.95;;;2.53;;
17965;SDS011;9108;53.204;10.424;2024-01-15T01:00:52;17.80;;;2.50;;
17965;SDS011;9108;53.204;10.424;2024-01-15T01:03:20;15.60;;;2.50;;
17965;SDS011;9108;53.204;10.424;2024-01-15T01:05:49;15.07;;;2.45;;
17965;SDS011;9108;53.204;10.424;2024-01-15T01:08:16;17.88;;;2.80;;
17965;SDS011;9108;53.204;10.424;2024-01-15T01:10:43;15.50;;;2.47;;
17965;SDS011;9108;53.204;10.424;2024-01-15T01:13:10;15.20;;;2.30;;
17965;SDS011;9108;53.204;10.424;2024-01-15T01:15:37;13.85;;;2.47;;
17965;SDS011;9108;53.204;10.424;2024-01-15T01:18:05;14.65;;;2.30;;
17965;SDS011;9108;53.204;10.424;2024-01-15T01:20:32;17.88;;;2.63;;
17965;SDS011;9108;53.204;10.424;2024-01-15T01:23:00;12.32;;;2.00;;
17965;SDS011;9108;53.204;10.424;2024-01-15T01:25:28;15.90;;;1.90;;
17965;SDS011;9108;53.204;10.424;2024-01-15T01:27:55;16.10;;;2.00;;
17965;SDS011;9108;53.204;10.424;2024-01-15T01:30:22;14.85;;;2.20;;
17965;SDS011;9108;53.204;10.424;2024-01-15T01:32:49;12.82;;;2.10;;
17965;SDS011;9108;53.204;10.424;2024-01-15T01:35:16;14.70;;;2.00;;
17965;SDS011;9108;53.204;10.424;2024-01-15T01:37:44;14.23;;;2.10;;
17965;SDS011;9108;53.204;10.424;2024-01-15T01:40:12;14.70;;;1.98;;
17965;SDS011;9108;53.204;10.424;2024-01-15T01:42:39;15.73;;;2.08;;
17965;SDS011;9108;53.204;10.424;2024-01-15T01:45:06;17.10;;;2.00;;
17965;SDS011;9108;53.204;10.424;2024-01-15T01:47:33;15.52;;;2.00;;
17965;SDS011;9108;53.204;10.424;2024-01-15T01:50:01;14.50;;;2.20;;
17965;SDS011;9108;53.204;10.424;2024-01-15T01:52:28;17.60;;;2.70;;
17965;SDS011;9108;53.204;10.424;2024-01-15T01:54:55;18.17;;;2.50;;
17965;SDS011;9108;53.204;10.424;2024-01-15T01:57:25;12.37;;;2.23;;
17965;SDS011;9108;53.204;10.424;2024-01-15T01:59:52;14.60;;;2.85;;
17965;SDS011;9108;53.204;10.424;2024-01-15T02:02:20;15.02;;;2.60;;
17965;SDS011;9108;53.204;10.424;2024-01-15T02:04:47;16.40;;;2.42;;
17965;SDS011;9108;53.204;10.424;2024-01-15T02:07:16;18.05;;;2.50;;
17965;SDS011;9108;53.204;10.424;2024-01-15T02:09:43;15.18;;;2.25;;
17965;SDS011;9108;53.204;10.424;2024-01-15T02:12:11;15.20;;;2.35;;
17965;SDS011;9108;53.204;10.424;2024-01-15T02:14:40;14.97;;;2.40;;
17965;SDS011;9108;53.204;10.424;2024-01-15T02:17:07;13.63;;;2.50;;
17965;SDS011;9108;53.204;10.424;2024-01-15T02:19:34;11.10;;;2.03;;
17965;SDS011;9108;53.204;10.424;2024-01-15T02:22:01;14.95;;;2.25;;
17965;SDS011;9108;53.204;10.424;2024-01-15T02:24:30;14.73;;;2.20;;
17965;SDS011;9108;53.204;10.424;2024-01-15T02:26:57;15.18;;;2.30;;
17965;SDS011;9108;53.204;10.424;2024-01-15T02:29:24;13.88;;;2.17;;
17965;SDS011;9108;53.204;10.424;2024-01-15T02:31:51;15.27;;;2.35;;
17965;SDS011;9108;53.204;10.424;2024-01-15T02:34:19;11.13;;;2.30;;
17965;SDS011;9108;53.204;10.424;2024-01-15T02:36:46;11.83;;;2.57;;
17965;SDS011;9108;53.204;10.424;2024-01-15T02:39:13;12.90;;;3.17;;
17965;SDS011;9108;53.204;10.424;2024-01-15T02:41:41;11.48;;;2.95;;
17965;SDS011;9108;53.204;10.424;2024-01-15T02:44:08;13.38;;;3.58;;
17965;SDS011;9108;53.204;10.424;2024-01-15T02:46:35;15.30;;;3.90;;
17965;SDS011;9108;53.204;10.424;2024-01-15T02:49:03;18.13;;;4.25;;
17965;SDS011;9108;53.204;10.424;2024-01-15T02:51:30;16.95;;;4.00;;
17965;SDS011;9108;53.204;10.424;2024-01-15T02:53:57;16.23;;;4.35;;
17965;SDS011;9108;53.204;10.424;2024-01-15T02:56:24;14.80;;;3.63;;
17965;SDS011;9108;53.204;10.424;2024-01-15T02:58:52;15.55;;;3.90;;
17965;SDS011;9108;53.204;10.424;2024-01-15T03:01:20;18.33;;;3.67;;
17965;SDS011;9108;53.204;10.424;2024-01-15T03:03:48;15.77;;;3.55;;
17965;SDS011;9108;53.204;10.424;2024-01-15T03:06:15;15.73;;;3.30;;
17965;SDS011;9108;53.204;10.424;2024-01-15T03:08:42;17.52;;;3.70;;
17965;SDS011;9108;53.204;10.424;2024-01-15T03:11:09;12.60;;;3.50;;
17965;SDS011;9108;53.204;10.424;2024-01-15T03:13:37;14.05;;;3.20;;
17965;SDS011;9108;53.204;10.424;2024-01-15T03:16:05;10.65;;;2.97;;
17965;SDS011;9108;53.204;10.424;2024-01-15T03:18:32;15.98;;;3.20;;
17965;SDS011;9108;53.204;10.424;2024-01-15T03:20:59;15.18;;;3.42;;
17965;SDS011;9108;53.204;10.424;2024-01-15T03:23:27;15.60;;;3.33;;
17965;SDS011;9108;53.204;10.424;2024-01-15T03:25:54;13.50;;;3.13;;
17965;SDS011;9108;53.204;10.424;2024-01-15T03:28:21;15.75;;;3.00;;
17965;SDS011;9108;53.204;10.424;2024-01-15T03:30:48;12.75;;;3.15;;
17965;SDS011;9108;53.204;10.424;2024-01-15T03:33:17;15.18;;;3.60;;
17965;SDS011;9108;53.204;10.424;2024-01-15T03:35:44;15.70;;;3.42;;
17965;SDS011;9108;53.204;10.424;2024-01-15T03:38:11;12.30;;;3.15;;
17965;SDS011;9108;53.204;10.424;2024-01-15T03:40:38;14.93;;;3.80;;
17965;SDS011;9108;53.204;10.424;2024-01-15T03:43:05;17.40;;;3.97;;
17965;SDS011;9108;53.204;10.424;2024-01-15T03:45:32;17.13;;;3.77;;
17965;SDS011;9108;53.204;10.424;2024-01-15T03:47:59;17.73;;;3.63;;
17965;SDS011;9108;53.204;10.424;2024-01-15T03:50:28;14.95;;;3.40;;
17965;SDS011;9108;53.204;10.424;2024-01-15T03:52:55;18.45;;;3.85;;
17965;SDS011;9108;53.204;10.424;2024-01-15T03:55:22;20.50;;;3.50;;
17965;SDS011;9108;53.204;10.424;2024-01-15T03:57:49;18.08;;;3.53;;
17965;SDS011;9108;53.204;10.424;2024-01-15T04:00:16;18.48;;;3.70;;
17965;SDS011;9108;53.204;10.424;2024-01-15T04:02:43;19.73;;;3.70;;
17965;SDS011;9108;53.204;10.424;2024-01-15T04:05:11;21.15;;;3.85;;
17965;SDS011;9108;53.204;10.424;2024-01-15T04:07:39;24.23;;;4.15;;
17965;SDS011;9108;53.204;10.424;2024-01-15T04:10:06;22.65;;;4.20;;
17965;SDS011;9108;53.204;10.424;2024-01-15T04:12:34;18.70;;;3.80;;
17965;SDS011;9108;53.204;10.424;2024-01-15T04:15:01;19.23;;;3.83;;
17965;SDS011;9108;53.204;10.424;2024-01-15T04:17:28;23.73;;;3.60;;
17965;SDS011;9108;53.204;10.424;2024-01-15T04:19:55;17.83;;;3.65;;
17965;SDS011;9108;53.204;10.424;2024-01-15T04:22:22;21.67;;;3.20;;
17965;SDS011;9108;53.204;10.424;2024-01-15T04:24:51;27.77;;;4.03;;
17965;SDS011;9108;53.204;10.424;2024-01-15T04:27:18;22.10;;;3.60;;
17965;SDS011;9108;53.204;10.424;2024-01-15T04:29:45;23.23;;;3.75;;
17965;SDS011;9108;53.204;10.424;2024-01-15T04:32:12;28.48;;;3.08;;
17965;SDS011;9108;53.204;10.424;2024-01-15T04:34:39;20.65;;;3.00;;
17965;SDS011;9108;53.204;10.424;2024-01-15T04:37:06;25.15;;;3.53;;
17965;SDS011;9108;53.204;10.424;2024-01-15T04:39:34;25.00;;;2.92;;
17965;SDS011;9108;53.204;10.424;2024-01-15T04:42:02;23.13;;;3.58;;
17965;SDS011;9108;53.204;10.424;2024-01-15T04:44:30;24.45;;;3.50;;
17965;SDS011;9108;53.204;10.424;2024-01-15T04:46:57;19.92;;;3.70;;
17965;SDS011;9108;53.204;10.424;2024-01-15T04:49:24;29.02;;;4.13;;
17965;SDS011;9108;53.204;10.424;2024-01-15T04:51:52;30.98;;;4.43;;
17965;SDS011;9108;53.204;10.424;2024-01-15T04:54:19;26.58;;;3.92;;
17965;SDS011;9108;53.204;10.424;2024-01-15T04:56:46;27.77;;;4.00;;
17965;SDS011;9108;53.204;10.424;2024-01-15T04:59:15;29.85;;;3.95;;
17965;SDS011;9108;53.204;10.424;2024-01-15T05:01:42;22.58;;;3.53;;
17965;SDS011;9108;53.204;10.424;2024-01-15T05:04:09;25.88;;;4.00;;
17965;SDS011;9108;53.204;10.424;2024-01-15T05:06:36;25.30;;;3.93;;
17965;SDS011;9108;53.204;10.424;2024-01-15T05:09:03;28.55;;;4.65;;
17965;SDS011;9108;53.204;10.424;2024-01-15T05:11:30;26.38;;;4.32;;
17965;SDS011;9108;53.204;10.424;2024-01-15T05:13:58;26.42;;;4.18;;
17965;SDS011;9108;53.204;10.424;2024-01-15T05:16:26;34.20;;;4.30;;
17965;SDS011;9108;53.204;10.424;2024-01-15T05:18:53;28.05;;;4.40;;
17965;SDS011;9108;53.204;10.424;2024-01-15T05:21:20;24.48;;;4.25;;
17965;SDS011;9108;53.204;10.424;2024-01-15T05:23:48;26.35;;;4.28;;
17965;SDS011;9108;53.204;10.424;2024-01-15T05:26:15;19.75;;;4.20;;
17965;SDS011;9108;53.204;10.424;2024-01-15T05:28:42;22.43;;;4.37;;
17965;SDS011;9108;53.204;10.424;2024-01-15T05:31:09;22.00;;;4.65;;
17965;SDS011;9108;53.204;10.424;2024-01-15T05:33:38;29.23;;;5.28;;
17965;SDS011;9108;53.204;10.424;2024-01-15T05:36:05;23.98;;;5.07;;
17965;SDS011;9108;53.204;10.424;2024-01-15T05:38:33;25.87;;;5.00;;
17965;SDS011;9108;53.204;10.424;2024-01-15T05:41:00;26.63;;;4.97;;
17965;SDS011;9108;53.204;10.424;2024-01-15T05:43:27;26.85;;;4.50;;
17965;SDS011;9108;53.204;10.424;2024-01-15T05:45:54;24.23;;;4.57;;
17965;SDS011;9108;53.204;10.424;2024-01-15T05:48:21;25.85;;;4.90;;
17965;SDS011;9108;53.204;10.424;2024-01-15T05:50:50;24.47;;;4.50;;
17965;SDS011;9108;53.204;10.424;2024-01-15T05:53:17;24.70;;;4.53;;
17965;SDS011;9108;53.204;10.424;2024-01-15T05:55:44;28.73;;;5.00;;
17965;SDS011;9108;53.204;10.424;2024-01-15T05:58:11;30.15;;;5.57;;
17965;SDS011;9108;53.204;10.424;2024-01-15T06:00:38;27.47;;;5.60;;
17965;SDS011;9108;53.204;10.424;2024-01-15T06:03:05;28.38;;;5.75;;
17965;SDS011;9108;53.204;10.424;2024-01-15T06:05:33;25.48;;;5.22;;
17965;SDS011;9108;53.204;10.424;2024-01-15T06:08:03;25.35;;;5.22;;
17965;SDS011;9108;53.204;10.424;2024-01-15T06:10:30;24.13;;;4.80;;
17965;SDS011;9108;53.204;10.424;2024-01-15T06:12:58;23.63;;;4.88;;
17965;SDS011;9108;53.204;10.424;2024-01-15T06:15:25;23.30;;;4.75;;
17965;SDS011;9108;53.204;10.424;2024-01-15T06:17:52;20.95;;;4.18;;
17965;SDS011;9108;53.204;10.424;2024-01-15T06:20:19;26.58;;;5.13;;
17965;SDS011;9108;53.204;10.424;2024-01-15T06:22:46;25.90;;;4.82;;
17965;SDS011;9108;53.204;10.424;2024-01-15T06:25:15;26.17;;;4.63;;
17965;SDS011;9108;53.204;10.424;2024-01-15T06:27:42;21.02;;;4.10;;
17965;SDS011;9108;53.204;10.424;2024-01-15T06:30:10;23.85;;;4.35;;
17965;SDS011;9108;53.204;10.424;2024-01-15T06:32:37;22.35;;;4.60;;
17965;SDS011;9108;53.204;10.424;2024-01-15T06:35:04;20.65;;;4.53;;
17965;SDS011;9108;53.204;10.424;2024-01-15T06:37:32;26.85;;;4.35;;
17965;SDS011;9108;53.204;10.424;2024-01-15T06:39:59;26.35;;;4.15;;
17965;SDS011;9108;53.204;10.424;2024-01-15T06:42:27;30.50;;;4.38;;
17965;SDS011;9108;53.204;10.424;2024-01-15T06:44:54;22.60;;;4.38;;
17965;SDS011;9108;53.204;10.424;2024-01-15T06:47:21;23.47;;;4.30;;
17965;SDS011;9108;53.204;10.424;2024-01-15T06:49:48;22.83;;;4.15;;
17965;SDS011;9108;53.204;10.424;2024-01-15T06:52:17;23.45;;;3.80;;
17965;SDS011;9108;53.204;10.424;2024-01-15T06:54:44;21.73;;;3.90;;
17965;SDS011;9108;53.204;10.424;2024-01-15T06:57:12;19.55;;;3.75;;
17965;SDS011;9108;53.204;10.424;2024-01-15T06:59:40;17.08;;;3.45;;
17965;SDS011;9108;53.204;10.424;2024-01-15T07:02:07;20.00;;;3.20;;
17965;SDS011;9108;53.204;10.424;2024-01-15T07:04:35;19.45;;;3.10;;
17965;SDS011;9108;53.204;10.424;2024-01-15T07:07:02;18.40;;;3.08;;
17965;SDS011;9108;53.204;10.424;2024-01-15T07:09:29;24.38;;;3.53;;
17965;SDS011;9108;53.204;10.424;2024-01-15T07:11:56;18.38;;;3.20;;
17965;SDS011;9108;53.204;10.424;2024-01-15T07:14:24;18.02;;;3.22;;
17965;SDS011;9108;53.204;10.424;2024-01-15T07:16:52;22.70;;;3.67;;
17965;SDS011;9108;53.204;10.424;2024-01-15T07:19:20;19.65;;;3.40;;
17965;SDS011;9108;53.204;10.424;2024-01-15T07:21:47;14.43;;;3.33;;
17965;SDS011;9108;53.204;10.424;2024-01-15T07:24:14;16.38;;;3.15;;
17965;SDS011;9108;53.204;10.424;2024-01-15T07:26:41;16.63;;;3.40;;
17965;SDS011;9108;53.204;10.424;2024-01-15T07:29:08;14.52;;;3.13;;
17965;SDS011;9108;53.204;10.424;2024-01-15T07:31:35;16.05;;;3.40;;
17965;SDS011;9108;53.204;10.424;2024-01-15T07:34:04;16.67;;;3.40;;
17965;SDS011;9108;53.204;10.424;2024-01-15T07:36:31;13.00;;;3.03;;
17965;SDS011;9108;53.204;10.424;2024-01-15T07:38:58;18.77;;;3.50;;
17965;SDS011;9108;53.204;10.424;2024-01-15T07:41:25;16.17;;;3.10;;
17965;SDS011;9108;53.204;10.424;2024-01-15T07:43:52;11.45;;;2.80;;
17965;SDS011;9108;53.204;10.424;2024-01-15T07:46:19;10.32;;;2.65;;
17965;SDS011;9108;53.204;10.424;2024-01-15T07:48:46;13.50;;;2.60;;
17965;SDS011;9108;53.204;10.424;2024-01-15T07:51:17;12.93;;;2.42;;
17965;SDS011;9108;53.204;10.424;2024-01-15T07:53:44;14.67;;;2.40;;
17965;SDS011;9108;53.204;10.424;2024-01-15T07:56:12;8.88;;;2.25;;
17965;SDS011;9108;53.204;10.424;2024-01-15T07:58:39;11.30;;;2.30;;
17965;SDS011;9108;53.204;10.424;2024-01-15T08:01:06;11.20;;;2.17;;
17965;SDS011;9108;53.204;10.424;2024-01-15T08:03:33;10.27;;;2.28;;
17965;SDS011;9108;53.204;10.424;2024-01-15T08:06:00;9.30;;;2.30;;
17965;SDS011;9108;53.204;10.424;2024-01-15T08:08:29;10.93;;;1.93;;
17965;SDS011;9108;53.204;10.424;2024-01-15T08:10:56;12.55;;;2.00;;
17965;SDS011;9108;53.204;10.424;2024-01-15T08:13:23;12.43;;;2.20;;
17965;SDS011;9108;53.204;10.424;2024-01-15T08:15:53;11.90;;;2.20;;
17965;SDS011;9108;53.204;10.424;2024-01-15T08:18:20;8.63;;;1.80;;
17965;SDS011;9108;53.204;10.424;2024-01-15T08:20:47;6.40;;;1.60;;
17965;SDS011;9108;53.204;10.424;2024-01-15T08:23:16;9.32;;;1.50;;
17965;SDS011;9108;53.204;10.424;2024-01-15T08:25:44;8.83;;;1.40;;
17965;SDS011;9108;53.204;10.424;2024-01-15T08:28:12;6.57;;;1.48;;
17965;SDS011;9108;53.204;10.424;2024-01-15T08:30:39;6.82;;;1.10;;
17965;SDS011;9108;53.204;10.424;2024-01-15T08:33:06;6.75;;;0.90;;
17965;SDS011;9108;53.204;10.424;2024-01-15T08:35:33;3.95;;;0.80;;
17965;SDS011;9108;53.204;10.424;2024-01-15T08:38:00;6.40;;;0.90;;
17965;SDS011;9108;53.204;10.424;2024-01-15T08:40:27;4.68;;;0.80;;
17965;SDS011;9108;53.204;10.424;2024-01-15T08:42:56;4.15;;;0.75;;
17965;SDS011;9108;53.204;10.424;2024-01-15T08:45:23;5.20;;;0.80;;
17965;SDS011;9108;53.204;10.424;2024-01-15T08:47:50;4.82;;;0.90;;
17965;SDS011;9108;53.204;10.424;2024-01-15T08:50:17;4.70;;;0.68;;
17965;SDS011;9108;53.204;10.424;2024-01-15T08:52:45;4.97;;;0.70;;
17965;SDS011;9108;53.204;10.424;2024-01-15T08:55:12;3.50;;;0.65;;
17965;SDS011;9108;53.204;10.424;2024-01-15T08:57:39;2.50;;;0.80;;
17965;SDS011;9108;53.204;10.424;2024-01-15T09:00:08;4.03;;;1.00;;
17965;SDS011;9108;53.204;10.424;2024-01-15T09:02:36;3.38;;;0.80;;
17965;SDS011;9108;53.204;10.424;2024-01-15T09:05:03;3.92;;;1.30;;
17965;SDS011;9108;53.204;10.424;2024-01-15T09:07:31;2.90;;;0.98;;
17965;SDS011;9108;53.204;10.424;2024-01-15T09:09:58;4.82;;;1.10;;
17965;SDS011;9108;53.204;10.424;2024-01-15T09:12:25;3.65;;;1.13;;
17965;SDS011;9108;53.204;10.424;2024-01-15T09:14:52;3.50;;;1.20;;
17965;SDS011;9108;53.204;10.424;2024-01-15T09:17:21;3.25;;;1.10;;
17965;SDS011;9108;53.204;10.424;2024-01-15T09:19:49;2.45;;;1.30;;
17965;SDS011;9108;53.204;10.424;2024-01-15T09:22:16;5.28;;;1.52;;
17965;SDS011;9108;53.204;10.424;2024-01-15T09:24:43;4.40;;;1.45;;
17965;SDS011;9108;53.204;10.424;2024-01-15T09:27:10;3.40;;;1.70;;
17965;SDS011;9108;53.204;10.424;2024-01-15T09:29:38;4.03;;;1.60;;
17965;SDS011;9108;53.204;10.424;2024-01-15T09:32:07;3.45;;;1.30;;
17965;SDS011;9108;53.204;10.424;2024-01-15T09:34:35;3.08;;;1.20;;
17965;SDS011;9108;53.204;10.424;2024-01-15T09:37:02;3.00;;;1.00;;
17965;SDS011;9108;53.204;10.424;2024-01-15T09:39:30;2.97;;;1.20;;
17965;SDS011;9108;53.204;10.424;2024-01-15T09:41:57;4.60;;;1.50;;
17965;SDS011;9108;53.204;10.424;2024-01-15T09:44:24;2.92;;;1.17;;
17965;SDS011;9108;53.204;10.424;2024-01-15T09:46:52;3.40;;;1.13;;
17965;SDS011;9108;53.204;10.424;2024-01-15T09:49:25;3.55;;;0.98;;
17965;SDS011;9108;53.204;10.424;2024-01-15T09:51:54;5.75;;;0.98;;
17965;SDS011;9108;53.204;10.424;2024-01-15T09:54:21;4.00;;;0.88;;
17965;SDS011;9108;53.204;10.424;2024-01-15T09:56:48;3.83;;;0.70;;
17965;SDS011;9108;53.204;10.424;2024-01-15T09:59:16;4.33;;;0.70;;
17965;SDS011;9108;53.204;10.424;2024-01-15T10:01:43;3.50;;;0.55;;
17965;SDS011;9108;53.204;10.424;2024-01-15T10:04:11;2.85;;;0.60;;
17965;SDS011;9108;53.204;10.424;2024-01-15T10:06:38;3.20;;;0.70;;
17965;SDS011;9108;53.204;10.424;2024-01-15T10:09:07;3.85;;;1.00;;
17965;SDS011;9108;53.204;10.424;2024-01-15T10:11:34;2.85;;;1.15;;
17965;SDS011;9108;53.204;10.424;2024-01-15T10:14:02;3.35;;;1.33;;
17965;SDS011;9108;53.204;10.424;2024-01-15T10:16:29;4.47;;;1.38;;
17965;SDS011;9108;53.204;10.424;2024-01-15T10:18:57;5.45;;;1.40;;
17965;SDS011;9108;53.204;10.424;2024-01-15T10:21:24;4.32;;;1.50;;
17965;SDS011;9108;53.204;10.424;2024-01-15T10:23:52;5.82;;;1.40;;
17965;SDS011;9108;53.204;10.424;2024-01-15T10:26:25;4.35;;;1.40;;
17965;SDS011;9108;53.204;10.424;2024-01-15T10:28:52;4.60;;;1.30;;
17965;SDS011;9108;53.204;10.424;2024-01-15T10:31:19;6.85;;;1.75;;
17965;SDS011;9108;53.204;10.424;2024-01-15T10:33:47;8.10;;;2.40;;
17965;SDS011;9108;53.204;10.424;2024-01-15T10:36:15;4.75;;;2.20;;
17965;SDS011;9108;53.204;10.424;2024-01-15T10:38:42;8.70;;;2.58;;
17965;SDS011;9108;53.204;10.424;2024-01-15T10:41:10;6.53;;;2.33;;
17965;SDS011;9108;53.204;10.424;2024-01-15T10:43:38;6.72;;;2.50;;
17965;SDS011;9108;53.204;10.424;2024-01-15T10:46:06;6.65;;;2.70;;
17965;SDS011;9108;53.204;10.424;2024-01-15T10:48:34;7.15;;;2.80;;
17965;SDS011;9108;53.204;10.424;2024-01-15T10:51:01;7.50;;;3.08;;
17965;SDS011;9108;53.204;10.424;2024-01-15T10:53:35;5.47;;;2.90;;
17965;SDS011;9108;53.204;10.424;2024-01-15T10:56:03;5.70;;;2.88;;
17965;SDS011;9108;53.204;10.424;2024-01-15T10:58:31;6.90;;;3.08;;
17965;SDS011;9108;53.204;10.424;2024-01-15T11:01:02;7.13;;;3.13;;
17965;SDS011;9108;53.204;10.424;2024-01-15T11:03:29;5.93;;;2.80;;
17965;SDS011;9108;53.204;10.424;2024-01-15T11:05:57;5.65;;;2.97;;
17965;SDS011;9108;53.204;10.424;2024-01-15T11:08:24;8.07;;;3.10;;
17965;SDS011;9108;53.204;10.424;2024-01-15T11:10:52;7.97;;;3.20;;
17965;SDS011;9108;53.204;10.424;2024-01-15T11:13:20;8.57;;;3.45;;
17965;SDS011;9108;53.204;10.424;2024-01-15T11:15:59;8.40;;;3.45;;
17965;SDS011;9108;53.204;10.424;2024-01-15T11:18:29;7.65;;;3.65;;
17965;SDS011;9108;53.204;10.424;2024-01-15T11:23:42;7.82;;;3.90;;
17965;SDS011;9108;53.204;10.424;2024-01-15T11:28:53;8.45;;;4.00;;
17965;SDS011;9108;53.204;10.424;2024-01-15T11:31:25;7.22;;;4.13;;
17965;SDS011;9108;53.204;10.424;2024-01-15T11:33:54;7.07;;;4.10;;
17965;SDS011;9108;53.204;10.424;2024-01-15T11:36:21;6.65;;;4.20;;
17965;SDS011;9108;53.204;10.424;2024-01-15T11:38:48;7.30;;;4.13;;
17965;SDS011;9108;53.204;10.424;2024-01-15T11:41:15;7.65;;;4.20;;
17965;SDS011;9108;53.204;10.424;2024-01-15T11:43:42;8.90;;;4.03;;
17965;SDS011;9108;53.204;10.424;2024-01-15T11:46:10;8.52;;;3.80;;
17965;SDS011;9108;53.204;10.424;2024-01-15T11:48:42;7.95;;;3.42;;
17965;SDS011;9108;53.204;10.424;2024-01-15T11:51:12;8.43;;;3.20;;
17965;SDS011;9108;53.204;10.424;2024-01-15T11:53:42;8.23;;;3.40;;
17965;SDS011;9108;53.204;10.424;2024-01-15T11:56:12;7.93;;;3.28;;
17965;SDS011;9108;53.204;10.424;2024-01-15T11:58:41;8.65;;;3.28;;
17965;SDS011;9108;53.204;10.424;2024-01-15T12:01:09;7.95;;;3.33;;
17965;SDS011;9108;53.204;10.424;2024-01-15T12:03:37;8.30;;;2.72;;
17965;SDS011;9108;53.204;10.424;2024-01-15T12:06:05;10.05;;;2.85;;
17965;SDS011;9108;53.204;10.424;2024-01-15T12:08:33;6.47;;;2.60;;
17965;SDS011;9108;53.204;10.424;2024-01-15T12:11:03;8.00;;;2.93;;
17965;SDS011;9108;53.204;10.424;2024-01-15T12:13:33;7.95;;;2.80;;
17965;SDS011;9108;53.204;10.424;2024-01-15T12:16:01;8.73;;;3.13;;
17965;SDS011;9108;53.204;10.424;2024-01-15T12:18:29;9.35;;;3.63;;
17965;SDS011;9108;53.204;10.424;2024-01-15T12:20:56;10.52;;;4.00;;
17965;SDS011;9108;53.204;10.424;2024-01-15T12:23:24;11.60;;;4.00;;
17965;SDS011;9108;53.204;10.424;2024-01-15T12:25:53;11.90;;;4.22;;
17965;SDS011;9108;53.204;10.424;2024-01-15T12:28:20;11.95;;;4.22;;
17965;SDS011;9108;53.204;10.424;2024-01-15T12:30:48;9.00;;;3.83;;
17965;SDS011;9108;53.204;10.424;2024-01-15T12:33:17;8.27;;;3.30;;
17965;SDS011;9108;53.204;10.424;2024-01-15T12:35:45;6.38;;;2.75;;
17965;SDS011;9108;53.204;10.424;2024-01-15T12:38:12;7.57;;;2.40;;
17965;SDS011;9108;53.204;10.424;2024-01-15T12:40:39;4.60;;;2.30;;
17965;SDS011;9108;53.204;10.424;2024-01-15T12:43:07;7.25;;;2.72;;
17965;SDS011;9108;53.204;10.424;2024-01-15T12:45:34;5.32;;;2.33;;
17965;SDS011;9108;53.204;10.424;2024-01-15T12:48:03;6.97;;;2.50;;
17965;SDS011;9108;53.204;10.424;2024-01-15T12:50:30;9.43;;;3.58;;
17965;SDS011;9108;53.204;10.424;2024-01-15T12:52:57;6.97;;;3.17;;
17965;SDS011;9108;53.204;10.424;2024-01-15T12:55:24;6.63;;;3.30;;
17965;SDS011;9108;53.204;10.424;2024-01-15T12:57:52;7.90;;;3.45;;
17965;SDS011;9108;53.204;10.424;2024-01-15T13:00:21;5.80;;;3.25;;
17965;SDS011;9108;53.204;10.424;2024-01-15T13:02:50;6.90;;;3.70;;
17965;SDS011;9108;53.204;10.424;2024-01-15T13:05:17;7.57;;;3.78;;
17965;SDS011;9108;53.204;10.424;2024-01-15T13:07:46;6.18;;;3.60;;
17965;SDS011;9108;53.204;10.424;2024-01-15T13:10:13;4.70;;;3.10;;
17965;SDS011;9108;53.204;10.424;2024-01-15T13:12:41;5.30;;;2.90;;
17965;SDS011;9108;53.204;10.424;2024-01-15T13:15:08;5.43;;;2.80;;
17965;SDS011;9108;53.204;10.424;2024-01-15T13:20:41;3.72;;;1.70;;
17965;SDS011;9108;53.204;10.424;2024-01-15T13:23:09;2.20;;;1.30;;
17965;SDS011;9108;53.204;10.424;2024-01-15T13:25:36;1.65;;;1.10;;
17965;SDS011;9108;53.204;10.424;2024-01-15T13:28:03;1.90;;;1.00;;
17965;SDS011;9108;53.204;10.424;2024-01-15T13:30:31;2.33;;;1.10;;
17965;SDS011;9108;53.204;10.424;2024-01-15T13:32:58;2.92;;;1.13;;
17965;SDS011;9108;53.204;10.424;2024-01-15T13:35:29;4.10;;;1.10;;
17965;SDS011;9108;53.204;10.424;2024-01-15T13:37:57;2.92;;;1.00;;
17965;SDS011;9108;53.204;10.424;2024-01-15T13:40:25;4.03;;;0.90;;
17965;SDS011;9108;53.204;10.424;2024-01-15T13:42:52;2.35;;;0.90;;
17965;SDS011;9108;53.204;10.424;2024-01-15T13:45:19;2.47;;;0.90;;
17965;SDS011;9108;53.204;10.424;2024-01-15T13:47:49;2.97;;;1.10;;
17965;SDS011;9108;53.204;10.424;2024-01-15T13:50:16;3.17;;;1.05;;
17965;SDS011;9108;53.204;10.424;2024-01-15T13:52:43;2.60;;;1.00;;
17965;SDS011;9108;53.204;10.424;2024-01-15T14:01:16;2.55;;;1.50;;
17965;SDS011;9108;53.204;10.424;2024-01-15T14:04:04;4.68;;;1.50;;
17965;SDS011;9108;53.204;10.424;2024-01-15T14:06:49;2.30;;;1.10;;
17965;SDS011;9108;53.204;10.424;2024-01-15T14:12:20;3.15;;;1.08;;
17965;SDS011;9108;53.204;10.424;2024-01-15T14:14:48;2.28;;;1.17;;
17965;SDS011;9108;53.204;10.424;2024-01-15T14:23:30;5.82;;;3.45;;
17965;SDS011;9108;53.204;10.424;2024-01-15T14:25:57;4.30;;;2.78;;
17965;SDS011;9108;53.204;10.424;2024-01-15T14:28:26;6.55;;;4.07;;
17965;SDS011;9108;53.204;10.424;2024-01-15T14:31:11;10.07;;;5.28;;
17965;SDS011;9108;53.204;10.424;2024-01-15T14:36:57;11.32;;;6.65;;
17965;SDS011;9108;53.204;10.424;2024-01-15T14:39:25;4.47;;;2.58;;
17965;SDS011;9108;53.204;10.424;2024-01-15T14:41:52;3.60;;;2.67;;
17965;SDS011;9108;53.204;10.424;2024-01-15T14:44:19;5.00;;;2.33;;
17965;SDS011;9108;53.204;10.424;2024-01-15T14:46:47;4.20;;;2.38;;
17965;SDS011;9108;53.204;10.424;2024-01-15T14:49:15;3.97;;;2.65;;
17965;SDS011;9108;53.204;10.424;2024-01-15T14:51:43;3.45;;;2.10;;
17965;SDS011;9108;53.204;10.424;2024-01-15T14:54:10;3.42;;;2.03;;
17965;SDS011;9108;53.204;10.424;2024-01-15T14:56:39;3.40;;;1.80;;
17965;SDS011;9108;53.204;10.424;2024-01-15T14:59:08;5.57;;;3.00;;
17965;SDS011;9108;53.204;10.424;2024-01-15T15:02:47;3.03;;;2.30;;
17965;SDS011;9108;53.204;10.424;2024-01-15T15:04:55;3.45;;;1.98;;
17965;SDS011;9108;53.204;10.424;2024-01-15T15:07:36;4.03;;;2.00;;
17965;SDS011;9108;53.204;10.424;2024-01-15T15:10:04;3.80;;;2.08;;
17965;SDS011;9108;53.204;10.424;2024-01-15T15:12:33;3.00;;;1.38;;
17965;SDS011;9108;53.204;10.424;2024-01-15T15:15:00;3.73;;;2.00;;
17965;SDS011;9108;53.204;10.424;2024-01-15T15:17:27;5.88;;;3.10;;
17965;SDS011;9108;53.204;10.424;2024-01-15T15:19:54;4.07;;;1.50;;
17965;SDS011;9108;53.204;10.424;2024-01-15T15:22:21;2.97;;;1.40;;
17965;SDS011;9108;53.204;10.424;2024-01-15T15:24:48;8.30;;;4.13;;